Time;durP1;ratioP1;P1;durP2;ratioP2;P2;SDS_P1;SDS_P2;PMS_P1;PMS_P2;Temp;Humidity;BMP_temperature;BMP_pressure;BME280_temperature;BME280_humidity;BME280_pressure;Samples;Min_cycle;Max_cycle;Signal;HPM_P1;HPM_P2
2022/08/08 00:00:10;;;;;;;2.05;1.73;;;18.00;73.10;;;;;;5045141;28;20038;-62
2022/08/08 00:03:15;;;;;;;2.65;1.50;;;18.00;73.40;;;;;;5046954;28;20583;-62
2022/08/08 00:06:00;;;;;;;3.33;1.52;;;17.90;73.40;;;;;;5033712;28;20124;-62
2022/08/08 00:08:38;;;;;;;2.28;1.70;;;17.90;73.70;;;;;;5042722;28;20029;-62
2022/08/08 00:11:25;;;;;;;3.45;2.05;;;17.80;74.00;;;;;;5046818;28;20026;-62
2022/08/08 00:13:59;;;;;;;3.15;1.73;;;17.80;74.00;;;;;;5033797;28;20047;-62
2022/08/08 00:16:38;;;;;;;2.83;1.83;;;17.70;74.30;;;;;;5046480;28;20529;-62
2022/08/08 00:19:17;;;;;;;1.98;1.65;;;17.70;74.50;;;;;;5052422;28;20017;-62
2022/08/08 00:22:07;;;;;;;1.75;1.35;;;17.70;74.70;;;;;;5053683;28;20032;-62
2022/08/08 00:24:38;;;;;;;2.35;1.30;;;17.60;74.80;;;;;;5047956;28;20028;-62
2022/08/08 00:27:09;;;;;;;2.45;1.92;;;17.60;75.20;;;;;;5040461;28;20116;-62
2022/08/08 00:29:48;;;;;;;3.65;1.65;;;17.60;76.00;;;;;;5053002;28;20044;-62
2022/08/08 00:32:33;;;;;;;2.65;1.90;;;17.50;75.50;;;;;;5052942;28;20036;-61
2022/08/08 00:35:20;;;;;;;4.00;2.05;;;17.50;75.70;;;;;;5053185;28;20032;-62
2022/08/08 00:38:24;;;;;;;2.83;1.88;;;17.40;76.00;;;;;;5052799;28;20573;-62
2022/08/08 00:41:21;;;;;;;3.65;2.10;;;17.40;76.10;;;;;;5052777;28;20021;-61
2022/08/08 00:43:46;;;;;;;2.25;1.80;;;17.40;76.40;;;;;;5021384;28;20037;-62
2022/08/08 00:46:21;;;;;;;2.97;2.10;;;17.30;76.50;;;;;;5040086;28;20025;-61
2022/08/08 00:49:24;;;;;;;3.47;1.70;;;17.30;76.70;;;;;;5037502;28;20025;-62
2022/08/08 00:51:55;;;;;;;3.25;1.88;;;17.30;76.80;;;;;;5033135;28;20575;-62
2022/08/08 00:54:24;;;;;;;4.78;1.75;;;17.20;77.10;;;;;;5046018;28;20445;-61
2022/08/08 00:57:10;;;;;;;2.05;1.85;;;17.20;77.30;;;;;;5033045;28;20045;-62
2022/08/08 00:59:47;;;;;;;2.20;1.98;;;17.20;77.40;;;;;;5031567;28;20112;-61
2022/08/08 01:02:50;;;;;;;2.35;2.15;;;17.20;77.80;;;;;;5015602;28;20021;-62
2022/08/08 01:05:57;;;;;;;3.88;1.95;;;17.10;78.00;;;;;;5033481;28;20041;-61
2022/08/08 01:08:50;;;;;;;2.20;1.95;;;17.00;78.30;;;;;;5040445;28;20159;-62
2022/08/08 01:11:49;;;;;;;3.03;1.88;;;16.90;78.70;;;;;;5033881;28;20057;-61
2022/08/08 01:14:39;;;;;;;5.13;2.30;;;16.90;78.90;;;;;;5034504;28;20053;-62
2022/08/08 01:17:29;;;;;;;2.22;1.85;;;16.80;79.10;;;;;;5050390;28;20091;-61
2022/08/08 01:20:31;;;;;;;2.70;2.05;;;16.70;79.20;;;;;;5051093;28;20080;-62
2022/08/08 01:23:30;;;;;;;2.95;1.92;;;16.70;79.40;;;;;;5051974;28;20049;-62
2022/08/08 01:26:32;;;;;;;2.90;1.77;;;16.60;80.30;;;;;;5052266;28;20036;-62
2022/08/08 01:29:50;;;;;;;2.83;1.83;;;16.60;79.80;;;;;;5057453;28;20025;-62
2022/08/08 01:32:53;;;;;;;2.97;1.80;;;16.60;80.00;;;;;;5006653;28;20132;-61
2022/08/08 01:35:24;;;;;;;2.53;1.80;;;16.50;80.40;;;;;;5038226;28;20104;-62
2022/08/08 01:38:11;;;;;;;2.50;2.10;;;16.40;80.70;;;;;;5041082;28;20025;-62
2022/08/08 01:41:07;;;;;;;2.83;1.70;;;16.40;80.90;;;;;;5041491;28;20070;-62
2022/08/08 01:44:08;;;;;;;2.80;1.95;;;16.40;81.10;;;;;;5042095;28;20024;-62
2022/08/08 01:47:08;;;;;;;2.50;1.98;;;16.40;81.20;;;;;;5041693;28;20109;-62
2022/08/08 01:50:05;;;;;;;3.63;2.15;;;16.30;81.40;;;;;;5035490;28;20028;-62
2022/08/08 01:52:34;;;;;;;2.85;1.65;;;16.30;81.70;;;;;;5055886;28;20100;-61
2022/08/08 01:55:10;;;;;;;2.88;2.05;;;16.20;81.90;;;;;;5042126;28;20017;-61
2022/08/08 01:57:56;;;;;;;4.57;1.95;;;16.20;82.20;;;;;;5047257;28;20111;-62
2022/08/08 02:00:30;;;;;;;2.85;1.90;;;16.20;82.50;;;;;;5044815;28;20021;-61
2022/08/08 02:03:03;;;;;;;2.78;2.10;;;16.10;82.70;;;;;;5034445;28;20034;-61
2022/08/08 02:05:59;;;;;;;3.75;1.98;;;16.10;82.90;;;;;;5046607;28;20045;-61
2022/08/08 02:08:47;;;;;;;2.90;2.00;;;16.10;83.00;;;;;;5046105;28;20112;-62
2022/08/08 02:11:16;;;;;;;3.28;2.13;;;16.00;83.30;;;;;;5024487;28;20112;-62
2022/08/08 02:13:50;;;;;;;2.47;1.90;;;16.00;83.60;;;;;;5048558;28;20039;-62
2022/08/08 02:16:34;;;;;;;3.13;2.53;;;15.90;83.70;;;;;;5050863;28;20104;-61
2022/08/08 02:19:18;;;;;;;3.20;2.20;;;15.90;83.80;;;;;;5047251;28;20523;-61
2022/08/08 02:24:45;;;;;;;2.95;1.95;;;15.80;84.20;;;;;;5054157;28;20066;-62
2022/08/08 02:27:20;;;;;;;3.55;2.47;;;15.80;84.50;;;;;;5038318;28;20588;-61
2022/08/08 02:29:54;;;;;;;3.25;2.05;;;15.70;84.70;;;;;;5055160;28;20477;-61
2022/08/08 02:32:44;;;;;;;3.97;2.20;;;15.70;84.80;;;;;;5037018;28;20545;-62
2022/08/08 02:35:22;;;;;;;;;;;15.70;84.80;;;;;;5036093;28;20477;-61
2022/08/08 02:38:12;;;;;;;2.55;1.58;;;15.50;84.90;;;;;;5035991;28;19995;-62
2022/08/08 02:41:02;;;;;;;2.35;2.03;;;15.50;85.40;;;;;;5034500;28;20022;-61
2022/08/08 02:43:38;;;;;;;2.80;2.03;;;15.50;85.50;;;;;;5048789;28;20517;-61
2022/08/08 02:46:22;;;;;;;3.58;2.40;;;15.40;85.70;;;;;;5035577;28;20428;-61
2022/08/08 02:49:23;;;;;;;3.30;2.38;;;15.40;85.80;;;;;;5035749;28;20021;-61
2022/08/08 02:52:10;;;;;;;2.03;1.83;;;15.40;85.90;;;;;;5034536;28;20091;-61
2022/08/08 02:54:54;;;;;;;3.70;2.45;;;15.30;86.10;;;;;;5048672;28;20017;-61
2022/08/08 02:57:40;;;;;;;4.10;2.42;;;15.20;86.40;;;;;;5035483;28;20057;-62
2022/08/08 03:00:33;;;;;;;2.67;2.47;;;15.20;86.90;;;;;;5035232;28;20068;-61
2022/08/08 03:03:16;;;;;;;3.47;2.40;;;15.20;87.10;;;;;;5034906;28;20022;-61
2022/08/08 03:06:02;;;;;;;4.35;3.45;;;15.10;87.30;;;;;;5048850;28;20446;-61
2022/08/08 03:09:07;;;;;;;4.75;3.03;;;15.10;87.60;;;;;;5041065;28;20053;-61
2022/08/08 03:11:54;;;;;;;4.10;2.55;;;15.10;87.80;;;;;;5053455;28;20404;-61
2022/08/08 03:15:12;;;;;;;3.90;2.20;;;15.00;88.10;;;;;;5054627;28;20028;-61
2022/08/08 03:17:46;;;;;;;4.35;2.63;;;15.10;88.00;;;;;;4942660;29;20403;-61
2022/08/08 03:20:14;;;;;;;3.53;2.40;;;15.00;88.40;;;;;;5035599;28;20371;-61
2022/08/08 03:22:57;;;;;;;2.75;2.28;;;15.00;88.60;;;;;;5033499;28;20382;-61
2022/08/08 03:25:26;;;;;;;4.85;3.72;;;15.10;88.60;;;;;;5036105;28;20064;-61
2022/08/08 03:28:06;;;;;;;5.25;2.78;;;15.00;89.00;;;;;;5043643;28;20040;-62
2022/08/08 03:30:32;;;;;;;3.97;2.38;;;15.00;89.30;;;;;;5038370;28;20025;-61
2022/08/08 03:33:17;;;;;;;3.60;2.47;;;15.00;89.60;;;;;;5039450;28;20036;-61
2022/08/08 03:35:44;;;;;;;3.38;2.65;;;15.00;89.70;;;;;;5046291;28;20469;-62
2022/08/08 03:38:10;;;;;;;3.08;2.78;;;14.90;89.90;;;;;;5051220;28;20025;-61
2022/08/08 03:40:36;;;;;;;3.22;2.28;;;14.90;90.00;;;;;;5045892;28;20631;-61
2022/08/08 03:43:02;;;;;;;2.88;2.55;;;14.90;90.10;;;;;;5046282;28;20033;-61
2022/08/08 03:45:29;;;;;;;4.85;2.65;;;14.80;90.20;;;;;;5045215;28;20032;-61
2022/08/08 03:48:08;;;;;;;3.40;2.78;;;14.90;90.30;;;;;;5043457;28;20024;-61
2022/08/08 03:51:10;;;;;;;;;;;;;;;;;;;;;
2022/08/08 03:53:36;;;;;;;2.67;2.30;;;14.80;90.40;;;;;;5047101;28;20366;-61
2022/08/08 03:56:02;;;;;;;3.20;2.60;;;14.80;90.50;;;;;;5044512;28;20549;-61
2022/08/08 03:58:27;;;;;;;4.00;2.88;;;14.70;90.60;;;;;;5043549;28;20033;-61
2022/08/08 04:00:55;;;;;;;3.72;2.72;;;14.70;90.60;;;;;;5044692;28;20021;-61
2022/08/08 04:03:21;;;;;;;3.85;2.70;;;14.70;90.70;;;;;;5040981;28;20067;-61
2022/08/08 04:05:47;;;;;;;4.28;2.90;;;14.70;90.70;;;;;;5044377;28;20405;-61
2022/08/08 04:08:19;;;;;;;3.38;2.67;;;14.70;90.80;;;;;;5046216;28;20470;-61
2022/08/08 04:10:47;;;;;;;3.33;2.63;;;14.60;90.90;;;;;;5045479;28;20020;-62
2022/08/08 04:13:13;;;;;;;4.10;2.55;;;14.60;90.90;;;;;;5022829;28;20017;-62
2022/08/08 04:15:39;;;;;;;4.30;2.78;;;14.60;91.00;;;;;;5046247;28;20017;-62
2022/08/08 04:18:04;;;;;;;5.47;2.92;;;14.50;91.00;;;;;;5038895;28;20013;-62
2022/08/08 04:20:30;;;;;;;4.07;3.05;;;14.50;91.10;;;;;;5045714;28;20033;-61
2022/08/08 04:22:56;;;;;;;4.80;2.83;;;14.50;91.10;;;;;;5039885;28;20048;-61
2022/08/08 04:25:21;;;;;;;3.90;3.50;;;14.50;91.20;;;;;;5021675;28;20105;-61
2022/08/08 04:27:47;;;;;;;4.95;3.17;;;14.50;91.20;;;;;;5045799;28;20017;-61
2022/08/08 04:30:12;;;;;;;6.13;3.33;;;14.50;91.30;;;;;;5039896;28;20030;-61
2022/08/08 04:32:38;;;;;;;3.60;2.90;;;14.50;91.40;;;;;;5045754;28;20018;-61
2022/08/08 04:35:04;;;;;;;2.60;2.40;;;14.50;91.40;;;;;;5046781;28;20029;-61
2022/08/08 04:37:30;;;;;;;6.22;3.60;;;14.60;91.50;;;;;;5052778;28;20029;-61
2022/08/08 04:39:55;;;;;;;4.30;2.75;;;14.60;91.60;;;;;;5050870;28;20032;-61
2022/08/08 04:42:22;;;;;;;5.43;3.10;;;14.60;91.60;;;;;;5051875;28;20029;-61
2022/08/08 04:44:56;;;;;;;4.82;2.60;;;14.60;91.70;;;;;;5050562;28;20032;-61
2022/08/08 04:47:21;;;;;;;6.57;2.97;;;14.60;91.80;;;;;;5050652;28;20477;-62
2022/08/08 04:49:47;;;;;;;4.40;2.90;;;14.60;91.90;;;;;;5051491;28;20036;-61
2022/08/08 04:52:12;;;;;;;4.30;3.13;;;14.60;92.00;;;;;;5034853;28;20021;-61
2022/08/08 04:54:38;;;;;;;4.25;3.22;;;14.60;92.00;;;;;;5051667;28;20041;-61
2022/08/08 04:57:03;;;;;;;5.65;3.67;;;14.60;92.10;;;;;;5034184;28;20100;-62
2022/08/08 04:59:29;;;;;;;4.20;3.13;;;14.60;92.20;;;;;;5050671;28;20019;-61
2022/08/08 05:01:55;;;;;;;5.05;3.60;;;14.60;92.30;;;;;;5051896;28;20370;-61
2022/08/08 05:04:20;;;;;;;5.10;3.30;;;14.60;92.40;;;;;;5050564;28;20498;-61
2022/08/08 05:06:47;;;;;;;4.28;3.38;;;14.60;92.60;;;;;;5051745;28;20017;-61
2022/08/08 05:09:12;;;;;;;6.15;3.75;;;14.60;92.70;;;;;;5052456;28;20036;-62
2022/08/08 05:11:38;;;;;;;4.82;3.60;;;14.60;92.90;;;;;;5050342;28;20021;-61
2022/08/08 05:14:04;;;;;;;4.55;3.42;;;14.60;93.10;;;;;;5051719;28;20029;-61
2022/08/08 05:16:30;;;;;;;6.05;4.00;;;14.60;93.20;;;;;;5051954;28;20020;-61
2022/08/08 05:18:55;;;;;;;3.63;2.95;;;14.60;93.40;;;;;;5050238;28;20025;-61
2022/08/08 05:21:21;;;;;;;3.85;2.88;;;14.70;93.50;;;;;;5047779;28;20078;-61
2022/08/08 05:23:46;;;;;;;5.22;2.97;;;14.70;93.50;;;;;;5050857;28;20060;-61
2022/08/08 05:26:12;;;;;;;3.15;2.85;;;14.80;93.50;;;;;;5047086;28;20017;-61
2022/08/08 05:28:38;;;;;;;3.72;2.50;;;14.80;93.50;;;;;;5029391;28;20044;-62
2022/08/08 05:31:03;;;;;;;3.83;2.35;;;14.90;93.50;;;;;;5044832;28;20052;-61
2022/08/08 05:33:29;;;;;;;3.78;2.50;;;14.90;93.50;;;;;;5044397;28;20029;-61
2022/08/08 05:35:59;;;;;;;4.03;2.30;;;15.00;93.50;;;;;;5044989;28;20420;-61
2022/08/08 05:38:28;;;;;;;4.97;2.38;;;15.00;93.50;;;;;;5047092;28;20075;-61
2022/08/08 05:40:57;;;;;;;4.50;2.83;;;15.10;93.50;;;;;;5048050;28;20115;-61
2022/08/08 05:43:24;;;;;;;4.72;2.85;;;15.10;93.50;;;;;;5046165;28;20030;-61
2022/08/08 05:45:53;;;;;;;3.67;2.60;;;15.10;93.60;;;;;;5047323;28;20104;-61
2022/08/08 05:48:19;;;;;;;;;;;15.20;93.70;;;;;;5048354;28;20032;-61
2022/08/08 05:50:45;;;;;;;6.15;3.30;;;15.20;93.60;;;;;;5050652;28;19912;-61
2022/08/08 05:53:11;;;;;;;3.80;3.08;;;15.20;94.00;;;;;;5053868;28;20043;-61
2022/08/08 05:55:42;;;;;;;3.88;2.90;;;15.20;94.00;;;;;;5059413;28;20029;-61
2022/08/08 05:58:11;;;;;;;5.07;3.72;;;15.30;94.00;;;;;;5055967;28;20116;-61
2022/08/08 06:00:43;;;;;;;3.95;2.80;;;15.30;94.00;;;;;;5056549;28;20029;-61
2022/08/08 06:03:14;;;;;;;4.03;3.15;;;15.40;94.10;;;;;;5052951;28;20078;-61
2022/08/08 06:05:51;;;;;;;5.03;3.40;;;15.40;94.20;;;;;;5049448;28;20072;-61
2022/08/08 06:09:09;;;;;;;3.50;2.88;;;15.50;94.40;;;;;;5050374;28;20036;-61
2022/08/08 06:15:06;;;;;;;3.95;2.40;;;15.60;94.40;;;;;;4998049;28;20029;-61
2022/08/08 06:17:33;;;;;;;5.60;3.13;;;15.60;94.60;;;;;;5051159;28;20028;-61
2022/08/08 06:20:25;;;;;;;5.80;2.90;;;15.70;94.60;;;;;;5047999;28;20028;-61
2022/08/08 06:22:50;;;;;;;4.82;3.25;;;15.80;94.70;;;;;;5047933;28;20021;-61
2022/08/08 06:25:16;;;;;;;4.53;2.83;;;15.80;94.80;;;;;;5052683;28;20496;-62
2022/08/08 06:27:55;;;;;;;3.47;2.92;;;15.90;94.80;;;;;;5052515;28;20174;-61
2022/08/08 06:30:21;;;;;;;3.70;2.28;;;16.10;94.70;;;;;;5050644;28;20021;-61
2022/08/08 06:36:08;;;;;;;3.80;2.22;;;16.20;94.80;;;;;;5004256;28;20109;-61
2022/08/08 06:38:38;;;;;;;3.00;2.20;;;16.20;94.90;;;;;;5051950;28;20033;-61
2022/08/08 06:41:06;;;;;;;4.47;2.60;;;16.30;94.80;;;;;;5055468;28;20498;-61
2022/08/08 06:43:35;;;;;;;2.87;1.77;;;16.30;94.80;;;;;;5054924;28;20033;-61
2022/08/08 06:46:03;;;;;;;3.37;2.30;;;16.40;94.80;;;;;;5047633;28;20543;-61
2022/08/08 06:48:28;;;;;;;2.65;1.95;;;16.50;94.80;;;;;;5054722;28;20025;-61
2022/08/08 06:50:55;;;;;;;3.97;1.80;;;16.60;94.70;;;;;;5054833;28;20028;-61
2022/08/08 06:53:21;;;;;;;2.22;2.03;;;16.70;94.60;;;;;;5035101;28;20017;-61
2022/08/08 06:55:47;;;;;;;3.63;2.22;;;16.80;94.50;;;;;;5061223;28;20029;-61
2022/08/08 06:58:13;;;;;;;4.55;1.92;;;16.90;94.80;;;;;;5062590;28;20100;-61
2022/08/08 07:00:39;;;;;;;3.05;1.70;;;17.00;94.50;;;;;;5057481;28;20500;-61
2022/08/08 07:03:11;;;;;;;2.40;1.48;;;17.00;94.40;;;;;;5065579;28;20099;-61
2022/08/08 07:05:39;;;;;;;3.63;1.45;;;17.10;94.20;;;;;;5066418;28;20071;-61
2022/08/08 07:08:26;;;;;;;3.28;1.35;;;17.20;94.10;;;;;;5048660;28;20068;-61
2022/08/08 07:12:00;;;;;;;3.08;1.27;;;17.30;93.80;;;;;;5059824;28;20029;-61
2022/08/08 07:14:10;;;;;;;3.72;1.70;;;17.40;93.40;;;;;;5048674;28;20432;-61
2022/08/08 07:16:59;;;;;;;3.30;1.05;;;17.50;93.20;;;;;;5037013;28;20020;-61
2022/08/08 07:19:57;;;;;;;7.75;1.67;;;17.50;93.00;;;;;;5036326;28;20061;-61
2022/08/08 07:22:33;;;;;;;4.10;1.25;;;17.60;92.70;;;;;;5035945;28;20033;-61
2022/08/08 07:25:02;;;;;;;4.63;1.10;;;17.70;92.50;;;;;;5025533;28;20025;-61
2022/08/08 07:27:44;;;;;;;1.40;0.90;;;17.80;92.40;;;;;;5043791;28;20036;-61
2022/08/08 07:30:11;;;;;;;2.13;0.90;;;17.90;92.20;;;;;;5023513;28;20117;-61
2022/08/08 07:32:38;;;;;;;5.18;1.10;;;18.00;92.00;;;;;;5029532;28;20048;-61
2022/08/08 07:35:05;;;;;;;4.13;1.83;;;18.10;91.80;;;;;;5046013;28;20029;-61
2022/08/08 07:37:54;;;;;;;;;;;;;;;;;;;;;
2022/08/08 07:40:21;;;;;;;2.25;0.98;;;18.30;91.30;;;;;;5053738;28;20024;-61
2022/08/08 07:42:50;;;;;;;3.13;0.93;;;18.40;91.20;;;;;;5029312;28;20151;-62
2022/08/08 07:45:15;;;;;;;2.70;1.05;;;18.40;91.00;;;;;;5041302;28;20052;-61
2022/08/08 07:47:41;;;;;;;3.80;1.20;;;18.50;90.90;;;;;;5044847;28;20063;-61
2022/08/08 07:50:07;;;;;;;2.70;0.90;;;18.60;90.80;;;;;;5051891;28;20108;-61
2022/08/08 07:53:16;;;;;;;2.20;0.80;;;18.70;90.80;;;;;;5053771;28;20433;-61
2022/08/08 07:55:43;;;;;;;1.30;0.63;;;18.90;90.50;;;;;;5052831;28;20551;-61
2022/08/08 07:58:31;;;;;;;2.85;1.08;;;18.90;90.50;;;;;;5056311;28;20391;-61
2022/08/08 08:01:14;;;;;;;4.07;1.10;;;19.10;90.20;;;;;;5060305;28;20025;-61
2022/08/08 08:04:02;;;;;;;3.35;0.90;;;19.20;90.00;;;;;;5025095;28;20087;-61
2022/08/08 08:06:30;;;;;;;2.17;0.80;;;19.30;89.00;;;;;;5048720;28;20037;-61
2022/08/08 08:09:32;;;;;;;3.38;0.80;;;19.30;88.20;;;;;;5045467;28;20110;-62
2022/08/08 08:11:58;;;;;;;1.73;0.80;;;19.40;87.80;;;;;;4989334;28;20041;-62
2022/08/08 08:14:39;;;;;;;3.33;0.77;;;19.40;87.70;;;;;;5033632;28;20380;-61
2022/08/08 08:17:08;;;;;;;3.35;0.90;;;19.50;87.20;;;;;;5024541;28;20139;-61
2022/08/08 08:19:33;;;;;;;3.03;0.80;;;19.60;87.20;;;;;;5037985;28;20025;-61
2022/08/08 08:21:59;;;;;;;1.90;0.60;;;19.70;86.90;;;;;;5034113;28;20275;-61
2022/08/08 08:24:25;;;;;;;5.35;0.80;;;19.80;86.70;;;;;;5042383;28;20041;-61
2022/08/08 08:26:51;;;;;;;3.22;0.80;;;19.90;86.50;;;;;;5042641;28;20029;-61
2022/08/08 08:29:48;;;;;;;2.60;0.80;;;20.00;86.00;;;;;;5046767;28;20389;-61
2022/08/08 08:32:14;;;;;;;1.60;0.77;;;20.10;85.30;;;;;;5020150;28;20025;-62
2022/08/08 08:34:40;;;;;;;2.67;0.70;;;20.10;85.00;;;;;;5046122;28;20384;-61
2022/08/08 08:37:05;;;;;;;3.10;0.80;;;20.20;84.20;;;;;;5050815;28;20029;-61
2022/08/08 08:39:31;;;;;;;3.78;0.70;;;20.20;82.90;;;;;;5054432;28;20025;-61
2022/08/08 08:41:57;;;;;;;1.70;0.60;;;20.30;82.90;;;;;;5054296;28;20068;-61
2022/08/08 08:44:25;;;;;;;1.73;0.60;;;20.30;82.40;;;;;;5041729;28;20386;-61
2022/08/08 08:46:52;;;;;;;3.10;0.50;;;20.40;82.20;;;;;;5068986;28;20047;-61
2022/08/08 08:49:28;;;;;;;1.50;0.70;;;20.50;81.20;;;;;;5056435;28;20112;-61
2022/08/08 08:51:57;;;;;;;1.75;0.68;;;20.60;80.60;;;;;;5062627;28;20460;-62
2022/08/08 08:54:24;;;;;;;2.08;0.60;;;20.60;80.00;;;;;;5059961;28;20017;-62
2022/08/08 08:56:50;;;;;;;1.60;0.65;;;20.70;79.80;;;;;;5062366;28;20039;-61
2022/08/08 08:59:17;;;;;;;0.82;0.52;;;20.80;79.50;;;;;;5040526;28;20032;-62
2022/08/08 09:01:44;;;;;;;1.67;0.40;;;20.90;79.50;;;;;;5034406;28;20036;-62
2022/08/08 09:04:13;;;;;;;2.15;0.57;;;21.00;79.40;;;;;;5036294;28;20045;-62
2022/08/08 09:07:01;;;;;;;3.00;0.52;;;21.10;79.00;;;;;;5046861;28;20108;-61
2022/08/08 09:09:28;;;;;;;2.58;0.55;;;21.10;78.50;;;;;;5057002;28;20036;-62
2022/08/08 09:12:13;;;;;;;;;;;;;;;;;;;;;
2022/08/08 09:14:40;;;;;;;1.73;0.80;;;21.30;76.30;;;;;;5050790;28;20020;-62
2022/08/08 09:17:25;;;;;;;1.60;0.40;;;21.40;75.40;;;;;;5040454;28;20028;-62
2022/08/08 09:19:56;;;;;;;1.83;0.50;;;21.40;75.10;;;;;;5041026;28;20116;-62
2022/08/08 09:22:22;;;;;;;2.13;0.50;;;21.50;75.30;;;;;;5051603;28;20078;-62
2022/08/08 09:24:52;;;;;;;2.05;0.50;;;21.60;74.90;;;;;;5053370;28;20030;-61
2022/08/08 09:27:59;;;;;;;2.25;0.60;;;21.70;74.40;;;;;;5047750;28;20451;-62
2022/08/08 09:30:56;;;;;;;0.68;0.30;;;21.80;74.40;;;;;;5014995;28;20449;-62
2022/08/08 09:33:23;;;;;;;1.23;0.40;;;22.00;74.10;;;;;;5022192;28;20056;-62
2022/08/08 09:35:50;;;;;;;0.70;0.30;;;22.20;74.10;;;;;;5051926;28;20108;-62
2022/08/08 09:38:42;;;;;;;1.17;0.43;;;22.40;73.30;;;;;;5051105;28;20100;-61
2022/08/08 09:41:11;;;;;;;0.80;0.40;;;22.50;71.90;;;;;;5052080;28;20393;-61
2022/08/08 09:44:51;;;;;;;;;;;;;;;;;;;;;
2022/08/08 09:47:05;;;;;;;0.98;0.40;;;22.50;70.80;;;;;;5043881;28;20032;-62
2022/08/08 09:49:32;;;;;;;1.38;0.40;;;22.60;70.40;;;;;;5051395;28;20034;-62
2022/08/08 09:51:58;;;;;;;1.40;0.47;;;22.80;70.30;;;;;;5051908;28;20025;-61
2022/08/08 09:55:00;;;;;;;;;;;;;;;;;;;;;
2022/08/08 10:04:51;;;;;;;0.85;0.43;;;23.60;68.60;;;;;;4905940;28;20051;-62
2022/08/08 10:07:18;;;;;;;0.90;0.38;;;23.60;68.30;;;;;;5019898;28;20029;-62
2022/08/08 10:09:50;;;;;;;2.25;0.40;;;23.60;68.00;;;;;;5040522;28;20465;-62
2022/08/08 10:12:16;;;;;;;3.22;0.70;;;23.70;66.60;;;;;;5045260;28;20017;-62
2022/08/08 10:14:42;;;;;;;2.72;0.93;;;23.70;66.70;;;;;;5052460;28;20025;-62
2022/08/08 10:17:09;;;;;;;0.77;0.32;;;23.80;66.60;;;;;;5045384;28;20032;-61
2022/08/08 10:19:39;;;;;;;1.05;0.45;;;23.90;65.80;;;;;;5053359;28;20032;-62
2022/08/08 10:22:06;;;;;;;1.67;0.47;;;24.00;64.90;;;;;;5037769;28;20056;-62
2022/08/08 10:24:33;;;;;;;1.33;0.40;;;24.00;63.50;;;;;;5053782;28;20021;-61
2022/08/08 10:27:04;;;;;;;2.33;0.50;;;24.10;63.70;;;;;;5054881;28;20025;-62
2022/08/08 10:29:51;;;;;;;0.52;0.40;;;24.30;63.00;;;;;;5041017;28;20060;-62
2022/08/08 10:32:31;;;;;;;1.67;0.63;;;24.40;63.10;;;;;;5035571;28;20020;-62
2022/08/08 10:34:59;;;;;;;0.68;0.30;;;24.60;62.90;;;;;;5035708;28;20025;-62
2022/08/08 10:37:27;;;;;;;2.88;0.30;;;24.80;62.10;;;;;;5042427;28;20013;-62
2022/08/08 10:39:54;;;;;;;1.95;0.70;;;25.00;61.80;;;;;;5054774;28;20052;-62
2022/08/08 10:42:22;;;;;;;1.65;0.40;;;25.20;61.40;;;;;;5044307;28;20068;-62
2022/08/08 10:44:48;;;;;;;1.88;0.40;;;25.30;60.80;;;;;;5047208;28;20036;-62
2022/08/08 10:47:16;;;;;;;0.73;0.40;;;25.40;59.90;;;;;;5066517;28;20012;-62
2022/08/08 10:49:53;;;;;;;1.55;0.40;;;25.40;58.70;;;;;;5045809;28;20409;-62
2022/08/08 10:52:27;;;;;;;1.08;0.32;;;25.50;57.90;;;;;;5053566;28;20024;-62
2022/08/08 10:54:54;;;;;;;3.30;0.75;;;25.60;57.50;;;;;;5057164;28;20017;-62
2022/08/08 10:57:20;;;;;;;3.03;0.40;;;25.80;56.70;;;;;;5051995;28;20017;-62
2022/08/08 10:59:53;;;;;;;0.82;0.30;;;25.90;57.00;;;;;;5062696;28;20503;-62
2022/08/08 11:02:30;;;;;;;1.25;0.30;;;26.00;57.20;;;;;;5043553;28;20025;-62
2022/08/08 11:04:58;;;;;;;0.90;0.30;;;26.10;57.20;;;;;;5036868;28;20053;-62
2022/08/08 11:07:30;;;;;;;0.70;0.30;;;26.10;57.40;;;;;;5045531;28;20036;-62
2022/08/08 11:10:01;;;;;;;0.75;0.30;;;26.20;57.40;;;;;;5041656;28;20032;-62
2022/08/08 11:12:27;;;;;;;1.40;0.40;;;26.20;57.20;;;;;;5064659;28;20017;-62
2022/08/08 11:18:22;;;;;;;1.63;0.50;;;26.40;56.80;;;;;;5036388;28;20086;-62
2022/08/08 11:20:49;;;;;;;1.55;0.30;;;26.60;55.80;;;;;;5064093;28;20031;-62
2022/08/08 11:23:17;;;;;;;1.33;0.40;;;26.80;55.70;;;;;;5054680;28;20021;-62
2022/08/08 11:25:44;;;;;;;0.57;0.28;;;26.90;55.40;;;;;;5037055;28;20489;-62
2022/08/08 11:28:13;;;;;;;1.52;0.30;;;27.00;55.40;;;;;;5051334;28;20055;-62
2022/08/08 11:30:40;;;;;;;1.52;0.40;;;27.10;55.30;;;;;;5059094;28;20021;-62
2022/08/08 11:33:07;;;;;;;1.67;0.30;;;27.20;55.20;;;;;;5057184;28;20028;-62
2022/08/08 11:35:33;;;;;;;1.40;0.30;;;27.30;55.10;;;;;;5032756;28;20554;-62
2022/08/08 11:38:00;;;;;;;0.47;0.30;;;27.30;54.80;;;;;;5056534;28;20535;-62
2022/08/08 11:40:26;;;;;;;2.15;0.40;;;27.20;54.00;;;;;;5036778;28;20021;-62
2022/08/08 11:42:53;;;;;;;0.60;0.32;;;27.10;54.00;;;;;;5059263;28;20032;-62
2022/08/08 11:45:21;;;;;;;2.05;0.60;;;27.00;54.00;;;;;;5053689;28;20037;-63
2022/08/08 11:47:47;;;;;;;1.37;0.40;;;27.00;53.90;;;;;;5058507;28;20553;-63
2022/08/08 11:50:18;;;;;;;2.47;0.45;;;27.00;53.80;;;;;;5051802;28;20309;-62
2022/08/08 11:52:59;;;;;;;1.55;0.30;;;27.20;54.00;;;;;;5045553;28;20063;-62
2022/08/08 11:58:47;;;;;;;1.30;0.40;;;27.70;53.50;;;;;;5026391;28;20051;-63
2022/08/08 12:01:13;;;;;;;1.13;0.35;;;27.80;53.30;;;;;;5032672;28;20022;-63
2022/08/08 12:03:48;;;;;;;3.22;0.30;;;28.00;52.70;;;;;;5057596;28;20024;-62
2022/08/08 12:06:16;;;;;;;0.88;0.35;;;28.10;52.60;;;;;;5056848;28;20117;-62
2022/08/08 12:08:41;;;;;;;1.65;0.40;;;28.40;52.20;;;;;;5060510;28;20075;-62
2022/08/08 12:14:29;;;;;;;1.65;0.40;;;28.90;51.40;;;;;;5034480;28;20025;-62
2022/08/08 12:16:55;;;;;;;2.25;0.65;;;29.20;52.00;;;;;;5033661;28;20024;-62
2022/08/08 12:19:22;;;;;;;1.08;0.50;;;29.20;50.60;;;;;;5056606;28;20033;-62
2022/08/08 12:22:10;;;;;;;2.50;0.50;;;29.00;50.30;;;;;;5062557;28;20017;-63
2022/08/08 12:24:52;;;;;;;1.27;0.50;;;28.80;50.60;;;;;;5057692;28;20439;-62
2022/08/08 12:27:18;;;;;;;1.17;0.40;;;28.60;50.90;;;;;;5040865;28;20068;-62
2022/08/08 12:29:54;;;;;;;1.63;0.50;;;28.60;51.30;;;;;;5054824;28;20059;-62
2022/08/08 12:32:20;;;;;;;1.55;0.50;;;28.70;51.70;;;;;;5052783;28;20016;-62
2022/08/08 12:34:56;;;;;;;2.03;0.95;;;28.90;50.80;;;;;;5031340;28;20021;-62
2022/08/08 12:37:28;;;;;;;2.08;0.50;;;29.10;50.40;;;;;;5037421;28;20047;-62
2022/08/08 12:40:03;;;;;;;1.30;0.40;;;29.40;50.00;;;;;;5052545;28;20099;-62
2022/08/08 12:42:29;;;;;;;1.63;0.50;;;29.70;50.10;;;;;;5061202;28;20511;-62
2022/08/08 12:45:06;;;;;;;1.20;0.50;;;29.80;49.50;;;;;;5058325;28;20036;-62
2022/08/08 12:47:31;;;;;;;1.45;0.60;;;29.90;48.10;;;;;;5041544;28;20057;-62
2022/08/08 12:49:57;;;;;;;2.13;0.63;;;30.10;48.60;;;;;;5016719;28;20029;-62
2022/08/08 12:52:23;;;;;;;1.05;0.50;;;30.30;48.40;;;;;;5033369;28;20080;-62
2022/08/08 12:55:01;;;;;;;1.90;0.40;;;30.40;47.90;;;;;;5018330;28;20469;-62
2022/08/08 12:57:35;;;;;;;1.80;0.60;;;30.30;47.50;;;;;;5034743;28;20057;-62
2022/08/08 13:00:02;;;;;;;2.47;0.55;;;30.20;47.60;;;;;;5054484;28;20041;-62
2022/08/08 13:02:30;;;;;;;2.42;0.50;;;30.30;47.60;;;;;;5055393;28;20021;-62
2022/08/08 13:04:58;;;;;;;0.75;0.32;;;30.50;47.70;;;;;;5045034;28;20049;-62
2022/08/08 13:07:38;;;;;;;1.23;0.65;;;30.50;47.40;;;;;;5049337;28;20546;-62
2022/08/08 13:10:31;;;;;;;1.15;0.40;;;30.60;47.30;;;;;;5058506;28;20097;-62
2022/08/08 13:13:42;;;;;;;;;;;;;;;;;;;;;
2022/08/08 13:19:57;;;;;;;0.50;0.35;;;30.70;47.20;;;;;;4941791;28;20034;-62
2022/08/08 13:25:49;;;;;;;1.13;0.57;;;30.90;47.30;;;;;;4999928;28;20442;-62
2022/08/08 13:28:15;;;;;;;0.90;0.40;;;31.00;46.80;;;;;;5052454;28;20107;-62
2022/08/08 13:30:42;;;;;;;0.95;0.40;;;31.10;46.60;;;;;;5047342;28;20409;-63
2022/08/08 13:33:08;;;;;;;1.35;0.63;;;31.20;46.60;;;;;;5032244;28;20033;-62
2022/08/08 13:35:34;;;;;;;0.47;0.30;;;31.20;46.10;;;;;;5044528;28;20022;-63
2022/08/08 13:38:03;;;;;;;0.70;0.47;;;31.40;45.90;;;;;;5032693;28;20072;-63
2022/08/08 13:40:29;;;;;;;2.50;0.40;;;31.60;45.80;;;;;;5037484;28;20066;-63
2022/08/08 13:42:55;;;;;;;1.25;0.40;;;31.80;45.70;;;;;;5040256;28;20079;-63
2022/08/08 13:45:31;;;;;;;1.10;0.40;;;31.90;45.50;;;;;;5033072;28;20022;-63
2022/08/08 13:48:01;;;;;;;1.13;0.40;;;32.00;44.80;;;;;;5053531;28;20531;-63
2022/08/08 13:50:31;;;;;;;0.68;0.30;;;32.00;44.20;;;;;;5055660;28;20025;-63
2022/08/08 13:52:56;;;;;;;0.65;0.40;;;32.00;44.30;;;;;;5049637;28;20393;-63
2022/08/08 13:55:25;;;;;;;0.73;0.40;;;32.10;44.30;;;;;;5054682;28;20032;-63
2022/08/08 13:57:51;;;;;;;1.23;0.40;;;32.20;44.20;;;;;;5048574;28;20095;-63
2022/08/08 14:00:20;;;;;;;0.82;0.38;;;32.20;43.80;;;;;;5057233;28;20381;-63
2022/08/08 14:02:59;;;;;;;1.73;0.40;;;32.10;44.00;;;;;;5053129;28;20478;-62
2022/08/08 14:05:29;;;;;;;1.00;0.40;;;32.10;44.50;;;;;;5049890;28;20134;-62
2022/08/08 14:07:54;;;;;;;1.55;0.40;;;32.30;44.70;;;;;;5030821;28;20021;-63